Hauptseite
METAR-TAF:

METAR-TAF

Flughäfen :

Flughafen Forlì

Forlì, Italien

Breite: 44-12N, Länge: 012-04E, Höhe: 27 m

Beobachtung

Neuester Wetterbericht von vor 26 Minuten, um 19:50 UTC
Wind 1 kt aus unterschiedlichen Richtungen
Temperatur 18°C
Luftfeuchtigkeit 83%
Luftdruck 1005 hPa
Sichtweite: 6000 m
Durchbrochene Bewölkung in der Höhe von 4000 ft

METAR: LIPK 301950Z VRB01KT 6000 BKN040 18/15 Q1005

Zeit: 22:16 (20:16 UTC)

Prognose

Neuester Wetterbericht von vor 3 Stunden und 16 Minuten, um 17:00 UTC
Gültige Prognose vom 30 um 18 UTC bis 31 um 18 UTC
Wind 14 kt aus West/Südwest
Sichtweite 10 km oder mehr
Aufgelockert bewölkt in der Höhe von 3000 ft
Zeitweise
vom 30 um 18 UTC bis 30 um 21 UTC
Sichtweite: 4000 m
Regenschauer
Übergehend zu
vom 30 um 19 UTC bis 30 um 21 UTC
Wind 8 kt aus Süd/Südost

TAF: LIPK 301700Z 3018/3118 24014KT 9999 SCT030 TEMPO 3018/3021 4000 SHRA BECMG 3019/3021 16008KT

Wetterbeobachtungen und Prognosen von mehr als 4000 Flughäfen (METAR und TAF Bericht).

Die verfügbaren Stationen werden durch gelbe und rote Markierungen auf der Karte dargestellt.

Führen Sie die Maus auf sie, um den Namen der Station zu sehen.

Darauf klicken, um die Beobachtung von Wetterbeobachtungen und Prognosen zu sehen.

Um die Karte zu ändern : klicken Sie auf den grünen Tasten mit einem schwarzen Kreuz Zum Vergrößern, auf den grünen Button mit einem Gedankenstrich zu verkleinern, oder auf die grünen Pfeile für benachbarte Karten.


METAR-TAF: